Ireland West Airport Knock, Ireland

6:47 AM GMT on February 27, 2015 (GMT +0000)
Connaught | Change Station
CLOSE
Current Station
Airport
Location: Ireland West Airport Knock,
Elevation: 663 ft
Nearby Weather Stations

Elev 663 ft 53.91 °N, 8.81 °W | Updated 17 minutes ago

Scattered Clouds
Scattered Clouds
34 °F
Feels Like 31 °F
N
4
Wind Variable Wind from SW

Today
High -- | Low -- °F
--% Chance of Precip.
Yesterday
High -- | Low -- °F
Precip. -- in
7:29 AM 6:07 PM
Waxing Gibbous, 66% visible
Pressure 29.98 in
Visibility 6.2 miles
Clouds Few 2000 ft
Scattered Clouds 2200 ft
Windchill 31 °F
Dew Point 32 °F
Humidity 93%
Rainfall 0.00 in
Snow Depth Not available.
UV 0 out of 12
Pollen Not available.
Air Quality Not available.
Flu Activity Not available.
METAR EIKN 270630Z 22003KT 9999 FEW020 SCT022 01/00 Q1015 NOSIG

More Conditions Fewer Conditions

Pressure 29.98 in
Visibility 6.2 miles
Clouds Few 2000 ft
Scattered Clouds 2200 ft
Windchill 31 °F
Dew Point 32 °F
Humidity 93%
Rainfall 0.00 in
Snow Depth Not available.
UV 0 out of 12
Pollen Not available.
Air Quality Not available.
Flu Activity Not available.
METAR EIKN 270630Z 22003KT 9999 FEW020 SCT022 01/00 Q1015 NOSIG

More Conditions Fewer Conditions

10-Day Weather Forecast

Almanac

Astronomy

Feb. 27, 2015 Rise Set
Actual Time
Civil Twilight
Nautical Twilight
Astronomical Twilight
Moon
Length of Visible Light
Length of Day
Tomorrow will be .
, % of the Moon is Illuminated

Today's Extremes

Country Highs Country Lows

Community

WunderPhotos

Upload Photos

1,800,646 photos uploaded!

WunderBlogs® & News

Nearby

Air Quality

  Air Quality AQ Index Pollutant
Not available.

Snow Depth

Station Depth Elevation

Earthquake Activity

City Distance Mag. Time & Date
Minimum magnitude displayed is 2.5.

Coastal Water Temperatures

Place Temperature

Nearby Weather Stations